Time;durP1;ratioP1;P1;durP2;ratioP2;P2;SDS_P1;SDS_P2;PMS_P1;PMS_P2;Temp;Humidity;BMP_temperature;BMP_pressure;BME280_temperature;BME280_humidity;BME280_pressure;Samples;Min_cycle;Max_cycle;Signal;HPM_P1;HPM_P2
2023/05/25 00:01:42;;;;;;;7.88;3.55;;;;;;;15.48;100.00;100365.56;4913744;29;20513;-67
2023/05/25 00:04:09;;;;;;;4.72;2.85;;;;;;;14.84;100.00;100279.59;4913981;29;20028;-73
2023/05/25 00:06:36;;;;;;;3.90;2.70;;;;;;;14.59;100.00;100370.06;4913747;29;20475;-67
2023/05/25 00:09:01;;;;;;;8.13;2.75;;;;;;;14.07;100.00;100355.22;4913912;29;20036;-67
2023/05/25 00:11:27;;;;;;;6.82;2.90;;;;;;;14.38;100.00;100362.75;4913269;29;20103;-67
2023/05/25 00:13:53;;;;;;;10.38;3.30;;;;;;;14.60;100.00;100353.66;4913724;29;20443;-68
2023/05/25 00:16:18;;;;;;;8.30;3.30;;;;;;;14.62;100.00;100310.38;4913508;29;20033;-67
2023/05/25 00:18:44;;;;;;;5.40;2.90;;;;;;;15.01;100.00;100350.06;4916725;29;20407;-67
2023/05/25 00:21:10;;;;;;;5.68;3.22;;;;;;;15.14;100.00;100340.72;4909680;29;20039;-68
2023/05/25 00:23:36;;;;;;;6.63;3.10;;;;;;;15.26;100.00;100343.53;4917180;29;20072;-68
2023/05/25 00:26:02;;;;;;;6.22;3.20;;;;;;;15.31;100.00;100344.47;4913873;29;20025;-70
2023/05/25 00:28:28;;;;;;;7.40;2.97;;;;;;;15.22;100.00;100333.09;4904366;29;20029;-67
2023/05/25 00:30:54;;;;;;;4.47;2.92;;;;;;;15.39;100.00;100346.31;4916311;29;20044;-69
2023/05/25 00:33:20;;;;;;;9.32;4.10;;;;;;;15.45;100.00;100341.22;4917252;29;20071;-67
2023/05/25 00:35:46;;;;;;;6.05;3.03;;;;;;;15.24;100.00;100302.75;4904799;29;20043;-67
2023/05/25 00:38:18;;;;;;;4.72;3.20;;;;;;;15.39;100.00;100341.13;4900912;29;20020;-65
2023/05/25 00:40:44;;;;;;;6.05;2.90;;;;;;;15.02;100.00;100277.28;4907638;29;20039;-65
2023/05/25 00:43:11;;;;;;;7.47;3.45;;;;;;;15.52;100.00;100343.06;4903694;29;20021;-67
2023/05/25 00:45:37;;;;;;;10.95;3.65;;;;;;;15.55;100.00;100348.28;4903785;29;20414;-67
2023/05/25 00:48:03;;;;;;;6.53;3.45;;;;;;;14.70;100.00;100223.09;4910783;29;20028;-71
2023/05/25 00:50:39;;;;;;;9.20;3.10;;;;;;;15.48;100.00;100359.50;4917093;29;20029;-67
2023/05/25 00:53:05;;;;;;;9.15;3.75;;;;;;;15.41;100.00;100337.69;4904212;29;20028;-67
2023/05/25 00:55:38;;;;;;;5.70;3.95;;;;;;;15.54;100.00;100346.56;4916802;29;20131;-68
2023/05/25 00:58:05;;;;;;;7.55;4.03;;;;;;;15.54;100.00;100351.78;4916649;29;20032;-67
2023/05/25 01:00:34;;;;;;;6.53;3.83;;;;;;;15.55;100.00;100356.09;4916702;29;20032;-68
2023/05/25 01:03:03;;;;;;;7.13;4.57;;;;;;;15.50;100.00;100349.97;4916606;29;20606;-65
2023/05/25 01:05:33;;;;;;;5.97;4.32;;;;;;;15.46;100.00;100354.25;4915999;29;20505;-67
2023/05/25 01:08:02;;;;;;;9.90;4.70;;;;;;;15.31;100.00;100354.88;4868772;29;20036;-66
2023/05/25 01:10:32;;;;;;;9.98;4.18;;;;;;;15.22;100.00;100340.88;4916277;29;20080;-67
2023/05/25 01:12:58;;;;;;;7.70;4.55;;;;;;;14.39;100.00;100209.56;4916293;29;20035;-65
2023/05/25 01:15:24;;;;;;;11.63;5.43;;;;;;;15.11;100.00;100328.56;4916176;29;20384;-66
2023/05/25 01:17:52;;;;;;;6.95;4.75;;;;;;;15.15;100.00;100340.78;4916701;29;20039;-67
2023/05/25 01:20:18;;;;;;;8.05;5.05;;;;;;;14.83;100.00;100348.91;4915808;29;20040;-66
2023/05/25 01:22:46;;;;;;;8.10;5.40;;;;;;;14.81;100.00;100344.53;4916122;29;20107;-67
2023/05/25 01:25:21;;;;;;;7.22;5.03;;;;;;;14.76;100.00;100338.38;4916126;29;20028;-65
2023/05/25 01:27:58;;;;;;;8.18;5.47;;;;;;;14.87;100.00;100344.63;4915839;29;20039;-68
2023/05/25 01:30:26;;;;;;;8.23;4.32;;;;;;;14.97;100.00;100337.88;4915738;29;20036;-67
2023/05/25 01:32:53;;;;;;;6.43;3.85;;;;;;;15.07;100.00;100333.72;4916119;29;20062;-67
2023/05/25 01:35:20;;;;;;;7.97;4.55;;;;;;;15.10;100.00;100331.16;4915900;29;20036;-66
2023/05/25 01:37:46;;;;;;;6.20;4.18;;;;;;;14.82;100.00;100320.28;4916051;29;20119;-66
2023/05/25 01:40:13;;;;;;;7.47;4.15;;;;;;;14.68;100.00;100336.50;4916214;29;20036;-67
2023/05/25 01:42:38;;;;;;;8.70;3.70;;;;;;;14.33;100.00;100328.91;4916123;29;20056;-66
2023/05/25 01:45:05;;;;;;;7.75;4.20;;;;;;;14.34;100.00;100315.09;4915481;29;20058;-70
2023/05/25 01:47:46;;;;;;;12.23;4.50;;;;;;;14.44;100.00;100336.03;4915782;29;20558;-68
2023/05/25 01:50:35;;;;;;;7.38;3.80;;;;;;;14.36;100.00;100344.53;4915847;29;20036;-66
2023/05/25 01:53:03;;;;;;;7.88;4.15;;;;;;;14.27;100.00;100348.66;4915904;29;20035;-67
2023/05/25 01:55:35;;;;;;;8.23;3.88;;;;;;;14.27;100.00;100341.78;4915426;29;20036;-68
2023/05/25 01:58:02;;;;;;;6.75;3.72;;;;;;;14.01;100.00;100310.09;4915429;29;20737;-68
2023/05/25 02:00:33;;;;;;;8.00;4.78;;;;;;;14.22;100.00;100340.81;4915919;29;20028;-66
2023/05/25 02:02:59;;;;;;;7.93;3.72;;;;;;;13.84;100.00;100278.59;4915530;29;20455;-68
2023/05/25 02:05:26;;;;;;;15.15;4.00;;;;;;;14.13;100.00;100351.88;4915844;29;20036;-66
2023/05/25 02:07:52;;;;;;;9.10;3.53;;;;;;;13.98;100.00;100351.56;4915153;29;20051;-71
2023/05/25 02:10:17;;;;;;;6.80;4.22;;;;;;;13.87;100.00;100349.63;4915209;29;20040;-65
2023/05/25 02:12:43;;;;;;;9.13;3.83;;;;;;;13.83;100.00;100349.50;4915347;29;20036;-65
2023/05/25 02:15:09;;;;;;;8.25;3.67;;;;;;;13.85;100.00;100358.22;4915569;29;20084;-64
2023/05/25 02:17:35;;;;;;;5.82;3.42;;;;;;;13.91;100.00;100356.59;4915508;29;20091;-64
2023/05/25 02:20:03;;;;;;;5.22;3.55;;;;;;;13.51;100.00;100287.44;4915372;29;20036;-67
2023/05/25 02:22:28;;;;;;;9.88;4.10;;;;;;;14.02;100.00;100359.44;4915313;29;20052;-66
2023/05/25 02:24:54;;;;;;;7.15;3.65;;;;;;;14.03;100.00;100349.94;4914794;29;20067;-65
2023/05/25 02:27:19;;;;;;;6.40;3.70;;;;;;;14.07;100.00;100368.19;4915151;29;20039;-66
2023/05/25 02:29:45;;;;;;;8.43;4.35;;;;;;;14.05;100.00;100372.47;4915237;29;20038;-69
2023/05/25 02:32:10;;;;;;;7.75;3.80;;;;;;;14.05;100.00;100369.00;4914810;29;20028;-66
2023/05/25 02:34:35;;;;;;;6.28;3.75;;;;;;;13.94;100.00;100360.13;4915046;29;20471;-65
2023/05/25 02:37:01;;;;;;;7.68;3.85;;;;;;;14.07;100.00;100388.97;4914918;29;20024;-66
2023/05/25 02:39:27;;;;;;;9.00;3.72;;;;;;;13.97;100.00;100361.06;4914374;29;20024;-66
2023/05/25 02:41:53;;;;;;;5.05;3.60;;;;;;;13.70;100.00;100317.25;4914496;29;20511;-72
2023/05/25 02:44:19;;;;;;;5.65;3.45;;;;;;;13.68;100.00;100376.88;4897784;29;20494;-67
2023/05/25 02:46:44;;;;;;;8.30;3.65;;;;;;;13.63;100.00;100375.00;4914649;29;20032;-64
2023/05/25 02:49:09;;;;;;;5.85;3.85;;;;;;;13.67;100.00;100379.41;4914798;29;20123;-65
2023/05/25 02:51:35;;;;;;;6.57;4.13;;;;;;;13.04;100.00;100307.06;4914693;29;20038;-67
2023/05/25 02:54:01;;;;;;;5.72;4.03;;;;;;;13.45;100.00;100381.53;4914215;29;20076;-68
2023/05/25 02:56:27;;;;;;;9.20;4.45;;;;;;;13.04;100.00;100301.00;4914283;29;20509;-65
2023/05/25 02:58:52;;;;;;;9.55;4.72;;;;;;;13.70;100.00;100389.88;4914442;29;20020;-66
2023/05/25 03:01:18;;;;;;;7.32;4.68;;;;;;;13.75;100.00;100383.06;4914436;29;20042;-66
2023/05/25 03:03:45;;;;;;;7.47;4.65;;;;;;;13.90;100.00;100398.09;4914456;29;20623;-66
2023/05/25 03:06:12;;;;;;;6.93;4.90;;;;;;;13.94;100.00;100401.66;4914200;29;20028;-67
2023/05/25 03:08:38;;;;;;;7.20;4.30;;;;;;;13.81;100.00;100369.38;4914124;29;20028;-64
2023/05/25 03:11:04;;;;;;;9.75;4.70;;;;;;;13.94;100.00;100397.31;4914457;29;20032;-71
2023/05/25 03:13:29;;;;;;;13.18;4.45;;;;;;;13.96;100.00;100402.56;4914413;29;20091;-70
2023/05/25 03:15:55;;;;;;;11.13;4.28;;;;;;;13.90;100.00;100398.09;4914367;29;20020;-66
2023/05/25 03:18:20;;;;;;;7.13;4.40;;;;;;;13.73;100.00;100400.31;4897541;29;20391;-66
2023/05/25 03:20:46;;;;;;;8.88;4.85;;;;;;;13.81;100.00;100398.78;4914044;29;20028;-67
2023/05/25 03:23:12;;;;;;;9.07;5.82;;;;;;;13.55;100.00;100341.13;4913390;29;20051;-67
2023/05/25 03:25:37;;;;;;;9.80;5.53;;;;;;;13.52;100.00;100322.88;4913843;29;20032;-67
2023/05/25 03:28:03;;;;;;;9.60;5.05;;;;;;;13.95;100.00;100387.84;4895908;29;20087;-66
2023/05/25 03:30:29;;;;;;;11.93;5.90;;;;;;;14.03;100.00;100392.34;4896819;29;20035;-66
2023/05/25 03:32:54;;;;;;;9.55;5.57;;;;;;;14.11;100.00;100397.69;4914136;29;20058;-68
2023/05/25 03:35:20;;;;;;;8.90;5.00;;;;;;;14.13;100.00;100395.13;4913810;29;20384;-66
2023/05/25 03:37:45;;;;;;;12.05;6.43;;;;;;;14.02;100.00;100405.31;4912175;29;20047;-67
2023/05/25 03:40:11;;;;;;;8.05;4.93;;;;;;;13.75;100.00;100401.22;4913530;29;20032;-66
2023/05/25 03:42:37;;;;;;;5.80;4.70;;;;;;;13.67;100.00;100395.88;4914096;29;20034;-66
2023/05/25 03:45:03;;;;;;;8.35;4.13;;;;;;;13.22;100.00;100316.13;4913467;29;20479;-67
2023/05/25 03:47:28;;;;;;;7.68;4.60;;;;;;;13.66;100.00;100396.72;4913636;29;20028;-66
2023/05/25 03:49:54;;;;;;;7.15;4.72;;;;;;;13.58;100.00;100396.53;4913847;29;20031;-67
2023/05/25 03:52:19;;;;;;;8.27;5.65;;;;;;;12.69;100.00;100250.09;4913330;29;20028;-66
2023/05/25 03:54:44;;;;;;;8.13;5.28;;;;;;;13.42;100.00;100386.63;4913697;29;20024;-71
2023/05/25 03:57:10;;;;;;;7.05;4.90;;;;;;;13.45;100.00;100383.25;4913423;29;20047;-67
2023/05/25 03:59:35;;;;;;;6.97;5.22;;;;;;;13.35;100.00;100375.19;4913570;29;20060;-65
2023/05/25 04:02:01;;;;;;;7.38;5.45;;;;;;;13.42;100.00;100386.63;4911663;29;20418;-67
2023/05/25 04:04:27;;;;;;;9.18;5.65;;;;;;;13.42;100.00;100397.00;4913462;29;20483;-69
2023/05/25 04:06:53;;;;;;;11.40;6.03;;;;;;;13.41;100.00;100388.34;4902604;29;20513;-67
2023/05/25 04:09:18;;;;;;;9.30;6.03;;;;;;;13.46;100.00;100395.34;4913539;29;20044;-66
2023/05/25 04:11:44;;;;;;;9.95;7.18;;;;;;;13.53;100.00;100397.25;4913300;29;20040;-67
2023/05/25 04:14:10;;;;;;;11.88;7.50;;;;;;;13.66;100.00;100391.53;4913663;29;20511;-67
2023/05/25 04:16:35;;;;;;;12.25;7.90;;;;;;;13.83;100.00;100394.50;4913488;29;20498;-68
2023/05/25 04:19:01;;;;;;;10.38;8.25;;;;;;;13.98;100.00;100403.47;4906379;29;20032;-70
2023/05/25 04:21:27;;;;;;;9.90;7.97;;;;;;;14.09;100.00;100407.16;4860961;29;20139;-65
2023/05/25 04:23:52;;;;;;;10.82;7.28;;;;;;;14.11;100.00;100397.69;4893186;29;20466;-68
2023/05/25 04:26:18;;;;;;;8.82;7.40;;;;;;;13.43;100.00;100276.88;4894422;29;20025;-69
2023/05/25 04:28:44;;;;;;;11.35;7.93;;;;;;;14.23;100.00;100410.94;4894565;29;20029;-67
2023/05/25 04:31:12;;;;;;;13.35;8.70;;;;;;;13.90;100.00;100341.88;4894546;29;20028;-67
2023/05/25 04:33:37;;;;;;;12.45;9.52;;;;;;;13.99;100.00;100342.94;4894333;29;20040;-66
2023/05/25 04:36:06;;;;;;;12.45;9.60;;;;;;;14.35;100.00;100410.31;4894307;29;20024;-66
2023/05/25 04:38:32;;;;;;;12.57;9.77;;;;;;;14.34;100.00;100398.19;4894686;29;20035;-68
2023/05/25 04:41:01;;;;;;;15.43;9.48;;;;;;;14.54;100.00;100428.88;4894220;29;20021;-67
2023/05/25 04:43:28;;;;;;;16.63;10.00;;;;;;;14.67;100.00;100419.66;4894146;29;20554;-66
2023/05/25 04:45:58;;;;;;;13.13;9.75;;;;;;;14.76;100.00;100417.19;4894378;29;20407;-69
2023/05/25 04:48:27;;;;;;;12.07;10.02;;;;;;;14.86;100.00;100433.84;4894490;29;20039;-68
2023/05/25 04:50:54;;;;;;;13.35;9.77;;;;;;;14.96;100.00;100409.78;4894496;29;20043;-67
2023/05/25 04:53:21;;;;;;;13.90;9.77;;;;;;;15.04;100.00;100405.59;4894427;29;20067;-68
2023/05/25 04:55:48;;;;;;;13.40;9.40;;;;;;;15.15;100.00;100412.69;4894379;29;20127;-68
2023/05/25 04:58:14;;;;;;;13.27;10.10;;;;;;;15.16;100.00;100398.84;4894551;29;20035;-74
2023/05/25 05:00:39;;;;;;;14.25;10.05;;;;;;;15.22;100.00;100401.56;4894589;29;20111;-68
2023/05/25 05:03:05;;;;;;;13.07;9.80;;;;;;;15.40;100.00;100418.31;4894758;29;20095;-67
2023/05/25 05:05:30;;;;;;;13.63;9.68;;;;;;;15.47;100.00;100417.56;4897732;29;20814;-67
2023/05/25 05:07:56;;;;;;;12.95;9.20;;;;;;;15.48;100.00;100415.00;4896808;29;20039;-68
2023/05/25 05:10:22;;;;;;;19.20;9.68;;;;;;;15.58;100.00;100421.22;4894239;29;20047;-67
2023/05/25 05:12:47;;;;;;;13.27;10.10;;;;;;;15.65;100.00;100412.66;4892705;29;20080;-67
2023/05/25 05:15:13;;;;;;;13.82;9.30;;;;;;;15.81;100.00;100420.69;4897380;29;20025;-68
2023/05/25 05:17:38;;;;;;;10.90;9.48;;;;;;;15.80;100.00;100426.72;4897356;29;20115;-67
2023/05/25 05:20:07;;;;;;;13.82;9.80;;;;;;;15.87;100.00;100430.34;4875836;29;20584;-69
2023/05/25 05:22:32;;;;;;;12.03;9.20;;;;;;;15.95;100.00;100426.13;4876008;29;20084;-68
2023/05/25 05:24:58;;;;;;;11.45;10.18;;;;;;;15.55;100.00;100357.84;4875957;29;20060;-68
2023/05/25 05:27:25;;;;;;;12.98;9.80;;;;;;;16.10;100.00;100435.88;4876149;29;20508;-68
2023/05/25 05:29:50;;;;;;;11.82;9.45;;;;;;;16.09;100.00;100429.81;4875885;29;20504;-72
2023/05/25 07:38:36;;;;;;;9.23;6.90;;;;;;;20.37;100.00;100451.19;4892197;29;20095;-69
2023/05/25 07:41:02;;;;;;;13.68;6.93;;;;;;;20.34;100.00;100452.09;4865915;29;20041;-69
2023/05/25 07:43:27;;;;;;;11.20;6.80;;;;;;;20.07;100.00;100405.88;4875874;29;20217;-68
2023/05/25 07:45:53;;;;;;;8.77;6.63;;;;;;;20.35;100.00;100452.97;4876384;29;20033;-70
2023/05/25 07:48:19;;;;;;;7.90;7.10;;;;;;;20.56;100.00;100445.88;4876098;29;20560;-67
2023/05/25 07:50:44;;;;;;;8.13;6.43;;;;;;;20.76;100.00;100459.81;4876311;29;20061;-68
2023/05/25 07:53:10;;;;;;;9.18;6.35;;;;;;;20.70;100.00;100457.19;4875956;29;20607;-72
2023/05/25 07:55:35;;;;;;;8.68;6.85;;;;;;;20.79;100.00;100466.81;4876476;29;20055;-71
2023/05/25 07:58:01;;;;;;;7.80;6.65;;;;;;;20.88;100.00;100460.63;4875496;29;20040;-69
2023/05/25 08:00:26;;;;;;;9.93;6.57;;;;;;;20.84;100.00;100457.16;4876262;29;20108;-68
2023/05/25 08:02:52;;;;;;;11.20;6.32;;;;;;;21.10;100.00;100456.13;4876229;29;20196;-68
2023/05/25 08:05:17;;;;;;;8.00;6.65;;;;;;;21.25;100.00;100452.50;4876068;29;20105;-70
2023/05/25 08:07:44;;;;;;;8.30;6.00;;;;;;;21.19;100.00;100457.81;4875692;29;20032;-68
2023/05/25 08:10:10;;;;;;;11.82;6.22;;;;;;;21.33;100.00;100463.81;4889467;29;20657;-69
2023/05/25 08:12:37;;;;;;;7.88;5.50;;;;;;;21.46;100.00;100448.84;4875238;29;20028;-68
2023/05/25 08:15:03;;;;;;;7.55;5.72;;;;;;;21.64;100.00;100463.59;4875982;29;20036;-72
2023/05/25 08:17:28;;;;;;;9.77;6.07;;;;;;;21.70;100.00;100453.03;4873462;29;20037;-73
2023/05/25 08:19:55;;;;;;;7.07;5.20;;;;;;;21.68;100.00;100452.16;4876178;29;20088;-69
2023/05/25 08:22:20;;;;;;;7.40;5.25;;;;;;;21.76;100.00;100437.22;4875923;29;20025;-69
2023/05/25 08:24:46;;;;;;;6.07;4.97;;;;;;;21.87;100.00;100455.50;4876069;29;20048;-68
2023/05/25 08:27:11;;;;;;;8.52;4.43;;;;;;;21.97;100.00;100449.25;4875460;29;20033;-68
2023/05/25 08:29:37;;;;;;;5.60;4.30;;;;;;;22.11;100.00;100443.84;4875492;29;20037;-69
2023/05/25 08:32:02;;;;;;;5.57;3.88;;;;;;;22.27;100.00;100438.44;4875840;29;20073;-73
2023/05/25 08:34:28;;;;;;;6.88;4.25;;;;;;;22.45;100.00;100447.88;4876082;29;20043;-68
2023/05/25 08:36:56;;;;;;;4.72;3.88;;;;;;;22.17;100.00;100371.94;4875702;29;20404;-69
2023/05/25 08:39:21;;;;;;;6.35;3.90;;;;;;;22.71;100.00;100458.06;4893827;29;20052;-68
2023/05/25 08:41:49;;;;;;;5.57;4.15;;;;;;;22.74;100.00;100457.16;4916394;29;20043;-67
2023/05/25 08:44:15;;;;;;;7.80;4.18;;;;;;;22.76;100.00;100448.34;4917036;29;20044;-69
2023/05/25 08:46:41;;;;;;;4.93;3.63;;;;;;;22.97;98.32;100443.66;4916986;29;20458;-73
2023/05/25 08:49:11;;;;;;;5.32;3.90;;;;;;;22.75;100.00;100382.56;4916979;29;20387;-74
2023/05/25 08:51:41;;;;;;;6.32;4.10;;;;;;;23.09;94.94;100419.78;4916719;29;20028;-68
2023/05/25 08:54:09;;;;;;;5.72;3.78;;;;;;;23.20;95.24;100409.13;4916877;29;20107;-72
2023/05/25 08:56:46;;;;;;;5.57;3.25;;;;;;;23.52;92.71;100426.13;4916517;29;20028;-69
2023/05/25 08:59:21;;;;;;;6.35;3.63;;;;;;;23.71;92.12;100434.59;4917023;29;20024;-69
2023/05/25 09:01:52;;;;;;;5.25;3.42;;;;;;;23.77;94.74;100427.47;4916730;29;20039;-69
2023/05/25 09:04:19;;;;;;;7.82;3.60;;;;;;;23.49;94.82;100367.34;4916494;29;20032;-72
2023/05/25 09:06:46;;;;;;;5.45;3.33;;;;;;;23.90;87.92;100429.84;4916373;29;20028;-69
2023/05/25 09:09:12;;;;;;;12.00;4.30;;;;;;;24.05;88.89;100412.00;4916568;29;20115;-68
2023/05/25 09:11:40;;;;;;;4.75;3.55;;;;;;;24.09;87.70;100397.88;4916543;29;20128;-69
2023/05/25 09:14:08;;;;;;;4.93;3.22;;;;;;;24.29;85.03;100408.00;4914484;29;20027;-70
2023/05/25 09:16:36;;;;;;;7.22;3.33;;;;;;;24.42;86.83;100410.41;4916952;29;20483;-69
2023/05/25 09:19:01;;;;;;;5.40;3.55;;;;;;;24.55;88.66;100410.09;4899240;29;20111;-69
2023/05/25 09:21:27;;;;;;;5.07;3.50;;;;;;;24.65;85.61;100404.63;4916298;29;20032;-70
2023/05/25 09:23:53;;;;;;;7.13;3.63;;;;;;;24.27;85.23;100335.09;4915182;29;20095;-69
2023/05/25 09:26:18;;;;;;;9.43;4.00;;;;;;;24.76;87.84;100399.09;4916260;29;20410;-69
2023/05/25 09:28:46;;;;;;;5.07;3.28;;;;;;;24.78;81.41;100378.84;4916090;29;20020;-69
2023/05/25 09:31:12;;;;;;;5.00;3.30;;;;;;;24.95;81.04;100389.84;4882925;29;20044;-68
2023/05/25 09:33:41;;;;;;;7.63;3.33;;;;;;;24.81;82.85;100344.41;4916207;29;20031;-69
2023/05/25 09:36:06;;;;;;;;;;;;;;;25.09;79.43;100391.31;4913832;29;20040;-69
2023/05/25 09:38:32;;;;;;;5.00;3.50;;;;;;;25.17;78.94;100387.56;4905696;29;19967;-70
2023/05/25 09:40:58;;;;;;;6.75;3.97;;;;;;;25.25;83.20;100386.50;4914319;29;20111;-71
2023/05/25 09:43:24;;;;;;;10.38;3.70;;;;;;;25.28;82.51;100370.56;4915988;29;20040;-70
2023/05/25 09:45:53;;;;;;;6.13;3.58;;;;;;;25.43;84.10;100379.91;4915497;29;20024;-69
2023/05/25 09:48:20;;;;;;;5.75;3.42;;;;;;;25.57;79.06;100368.97;4908204;29;20072;-68
2023/05/25 09:50:46;;;;;;;5.03;3.00;;;;;;;25.69;76.37;100371.28;4909668;29;20684;-68
2023/05/25 09:53:11;;;;;;;6.15;3.20;;;;;;;25.54;76.56;100318.84;4898880;29;20430;-68
2023/05/25 09:55:38;;;;;;;7.90;3.40;;;;;;;26.02;78.38;100370.34;4915923;29;20032;-67
2023/05/25 09:58:03;;;;;;;5.30;3.20;;;;;;;26.11;81.97;100372.78;4898774;29;20451;-67
2023/05/25 10:00:29;;;;;;;7.15;3.20;;;;;;;26.21;76.53;100368.94;4915770;29;20067;-70
2023/05/25 10:02:54;;;;;;;8.00;3.60;;;;;;;26.34;75.24;100356.19;4915758;29;20075;-72
2023/05/25 10:05:20;;;;;;;5.13;2.92;;;;;;;26.51;72.92;100371.56;4915344;29;20058;-70
2023/05/25 10:07:49;;;;;;;6.05;3.15;;;;;;;26.69;70.42;100371.91;4915629;29;20035;-69
2023/05/25 10:10:15;;;;;;;5.80;2.05;;;;;;;26.68;63.80;100357.81;4915686;29;20439;-68
2023/05/25 10:12:42;;;;;;;5.50;2.55;;;;;;;26.82;64.00;100369.75;4915465;29;20031;-67
2023/05/25 10:15:10;;;;;;;7.22;2.97;;;;;;;26.88;62.95;100349.25;4915617;29;20039;-71
2023/05/25 10:17:51;;;;;;;4.55;2.72;;;;;;;27.17;63.58;100357.16;4914693;29;20031;-71
2023/05/25 10:20:17;;;;;;;8.48;2.60;;;;;;;27.20;61.75;100344.63;4915242;29;20034;-68
2023/05/25 10:22:46;;;;;;;6.22;2.70;;;;;;;27.54;61.81;100354.13;4915712;29;20036;-68
2023/05/25 10:25:20;;;;;;;6.22;2.60;;;;;;;27.63;61.42;100341.44;4914832;29;20446;-69
2023/05/25 10:27:58;;;;;;;6.55;2.85;;;;;;;27.62;62.70;100350.34;4915244;29;20036;-70
2023/05/25 10:30:26;;;;;;;4.93;2.53;;;;;;;27.37;63.28;100330.81;4915172;29;20032;-68
2023/05/25 10:32:54;;;;;;;3.65;2.60;;;;;;;27.26;61.51;100343.56;4915082;29;20419;-69
2023/05/25 10:35:24;;;;;;;5.27;2.97;;;;;;;26.70;62.60;100259.78;4914266;29;20040;-71
2023/05/25 10:37:53;;;;;;;5.03;2.92;;;;;;;26.32;65.84;100225.72;4914350;29;20028;-70
2023/05/25 10:40:22;;;;;;;;;;;;;;;26.92;63.18;100335.00;4915868;29;20052;-69
2023/05/25 10:42:50;;;;;;;7.43;2.67;;;;;;;26.86;65.52;100313.16;4914146;29;19919;-68
2023/05/25 10:45:18;;;;;;;5.70;2.95;;;;;;;26.91;65.36;100333.25;4880673;29;20426;-70
2023/05/25 10:47:47;;;;;;;5.45;2.92;;;;;;;26.66;65.05;100319.91;4897723;29;20095;-69
2023/05/25 10:50:36;;;;;;;5.38;2.80;;;;;;;26.70;63.48;100333.94;4897247;29;20032;-69
2023/05/25 10:53:05;;;;;;;6.95;3.25;;;;;;;26.81;67.38;100342.41;4871573;29;20041;-70
2023/05/25 10:55:53;;;;;;;4.93;3.10;;;;;;;26.28;67.84;100269.94;4863662;29;20108;-69
2023/05/25 10:58:21;;;;;;;8.13;2.92;;;;;;;26.57;65.38;100331.69;4872346;29;20091;-69
2023/05/25 11:01:06;;;;;;;5.95;3.15;;;;;;;26.92;67.03;100332.34;4871661;29;20974;-69
2023/05/25 11:03:46;;;;;;;6.95;2.90;;;;;;;26.56;66.80;100284.94;4873316;29;20060;-69
2023/05/25 11:06:14;;;;;;;5.60;2.83;;;;;;;26.71;65.10;100335.66;4872176;29;20037;-67
2023/05/25 11:08:58;;;;;;;6.43;3.10;;;;;;;26.54;64.55;100317.66;4871776;29;20041;-67
2023/05/25 11:11:41;;;;;;;3.45;2.53;;;;;;;26.91;63.52;100335.91;4869446;29;20044;-67
2023/05/25 11:14:28;;;;;;;5.72;3.00;;;;;;;26.81;63.26;100331.84;4871658;29;20048;-68
2023/05/25 11:17:03;;;;;;;5.65;2.80;;;;;;;26.64;66.97;100317.34;4872019;29;20040;-69
2023/05/25 11:19:47;;;;;;;4.35;2.60;;;;;;;26.51;63.17;100320.44;4872330;29;20096;-68
2023/05/25 11:22:24;;;;;;;7.13;3.08;;;;;;;26.75;66.79;100318.78;4870132;29;20209;-68
2023/05/25 11:24:51;;;;;;;4.38;2.47;;;;;;;27.07;65.09;100320.34;4904398;29;20048;-71
2023/05/25 11:27:46;;;;;;;4.97;2.55;;;;;;;27.08;61.23;100323.88;4862022;29;20059;-68
2023/05/25 11:30:17;;;;;;;7.95;2.70;;;;;;;27.00;61.33;100325.91;4896461;29;20036;-68
2023/05/25 11:32:49;;;;;;;10.48;2.95;;;;;;;26.75;63.52;100316.13;4911994;29;20032;-71
2023/05/25 11:35:16;;;;;;;6.55;2.90;;;;;;;26.81;62.45;100302.69;4907689;29;20119;-70
2023/05/25 11:37:52;;;;;;;7.25;2.67;;;;;;;26.91;60.47;100261.72;4896402;29;20578;-69
2023/05/25 11:40:22;;;;;;;3.90;2.50;;;;;;;27.46;61.46;100307.59;4913939;29;20052;-68
2023/05/25 11:42:50;;;;;;;6.10;2.75;;;;;;;27.75;55.83;100307.38;4913864;29;20486;-68
2023/05/25 11:45:16;;;;;;;5.63;2.88;;;;;;;27.97;58.61;100300.41;4884782;29;20037;-69
2023/05/25 11:47:42;;;;;;;3.97;2.58;;;;;;;28.27;60.17;100303.69;4907280;29;20043;-69
2023/05/25 11:50:17;;;;;;;6.57;3.55;;;;;;;28.28;57.53;100289.47;4913949;29;20024;-68
2023/05/25 11:52:44;;;;;;;6.85;2.33;;;;;;;28.15;56.94;100299.72;4873288;29;20132;-69
2023/05/25 11:55:13;;;;;;;5.40;2.40;;;;;;;27.97;59.76;100309.22;4812287;29;20500;-69
2023/05/25 11:57:41;;;;;;;7.25;3.20;;;;;;;27.67;61.36;100305.94;4872269;29;20053;-69
2023/05/25 12:00:10;;;;;;;7.80;3.47;;;;;;;27.43;67.77;100322.69;4872226;29;20036;-68
2023/05/25 12:02:42;;;;;;;6.73;3.10;;;;;;;27.13;66.83;100316.66;4856751;29;20056;-68
2023/05/25 12:05:10;;;;;;;6.80;2.88;;;;;;;26.90;68.59;100309.47;4870809;29;20300;-69
2023/05/25 12:07:45;;;;;;;5.97;2.88;;;;;;;26.82;66.80;100303.53;4858110;29;20045;-70
2023/05/25 12:10:13;;;;;;;5.82;2.47;;;;;;;26.31;63.64;100242.50;4872766;29;20136;-70
2023/05/25 12:12:44;;;;;;;7.45;2.60;;;;;;;26.47;63.45;100295.84;4873431;29;20052;-70
2023/05/25 12:15:17;;;;;;;6.55;2.95;;;;;;;26.48;64.35;100302.81;4858760;29;20540;-69
2023/05/25 12:17:44;;;;;;;5.88;2.80;;;;;;;26.38;64.73;100311.97;4877487;29;20076;-69
2023/05/25 12:20:11;;;;;;;7.68;2.50;;;;;;;26.30;65.17;100297.22;4877227;29;20080;-70
2023/05/25 12:22:38;;;;;;;8.43;2.80;;;;;;;26.25;65.04;100303.56;4878053;29;20064;-71
2023/05/25 12:25:07;;;;;;;7.45;3.03;;;;;;;26.23;64.55;100300.97;4917304;29;20032;-70
2023/05/25 12:27:34;;;;;;;10.02;2.42;;;;;;;26.11;61.28;100304.84;4899757;29;20076;-71
2023/05/25 12:30:01;;;;;;;6.75;2.80;;;;;;;26.02;61.10;100318.34;4917374;29;20106;-71
2023/05/25 12:32:26;;;;;;;4.82;2.45;;;;;;;25.71;62.62;100331.56;4917193;29;20032;-71
2023/05/25 12:35:01;;;;;;;5.38;2.63;;;;;;;25.64;65.14;100329.09;4917126;29;20087;-67
2023/05/25 12:37:26;;;;;;;4.63;2.78;;;;;;;25.38;67.51;100318.38;4917275;29;20039;-70
2023/05/25 12:39:52;;;;;;;10.98;3.40;;;;;;;25.29;69.21;100320.31;4917471;29;20048;-70
2023/05/25 12:42:18;;;;;;;4.20;2.65;;;;;;;25.28;69.13;100315.94;4917244;29;20043;-68
2023/05/25 12:44:45;;;;;;;9.10;3.55;;;;;;;25.26;69.30;100311.59;4916961;29;20038;-69
2023/05/25 12:47:26;;;;;;;5.03;2.85;;;;;;;25.18;66.47;100309.16;4917225;29;20036;-70
2023/05/25 12:50:11;;;;;;;4.43;3.10;;;;;;;25.29;66.90;100317.66;4906142;29;20051;-70
2023/05/25 12:52:38;;;;;;;8.68;3.22;;;;;;;24.89;67.00;100265.91;4916852;29;20020;-70
2023/05/25 12:55:26;;;;;;;8.68;3.35;;;;;;;25.11;66.37;100315.50;4917003;29;20129;-69
2023/05/25 12:58:04;;;;;;;6.60;2.80;;;;;;;25.07;65.50;100314.72;4917044;29;20028;-70
2023/05/25 13:00:36;;;;;;;7.05;3.40;;;;;;;25.09;66.03;100330.56;4917158;29;20024;-70
2023/05/25 13:03:08;;;;;;;9.27;3.70;;;;;;;24.92;68.14;100309.84;4916461;29;20040;-70
2023/05/25 13:05:35;;;;;;;6.82;2.67;;;;;;;24.99;67.92;100337.84;4898769;29;20471;-70
2023/05/25 13:08:02;;;;;;;8.25;2.92;;;;;;;24.83;69.33;100334.69;4916567;29;20047;-70
2023/05/25 13:10:29;;;;;;;5.07;2.90;;;;;;;24.70;69.67;100349.97;4917113;29;20119;-70
2023/05/25 13:12:57;;;;;;;5.35;2.85;;;;;;;24.57;71.33;100362.53;4916687;29;20035;-70
2023/05/25 13:15:24;;;;;;;6.57;3.10;;;;;;;24.31;72.35;100345.53;4917014;29;20102;-70
2023/05/25 13:17:51;;;;;;;5.03;2.40;;;;;;;24.45;72.08;100354.91;4916811;29;20070;-69
2023/05/25 13:20:21;;;;;;;7.53;2.70;;;;;;;24.30;74.36;100351.72;4914027;29;20028;-70
2023/05/25 13:22:49;;;;;;;12.02;5.13;;;;;;;24.20;75.64;100364.22;4914920;29;20039;-69
2023/05/25 13:25:15;;;;;;;6.75;3.60;;;;;;;23.93;78.51;100360.41;4913801;29;20055;-71
2023/05/25 13:27:47;;;;;;;7.28;3.20;;;;;;;23.67;81.73;100334.53;4916340;29;20038;-69
2023/05/25 13:30:13;;;;;;;6.47;3.45;;;;;;;23.63;82.51;100346.00;4916228;29;20087;-70